This London Heathrow Airport weather forecast is generated by the Met Office Weather Widget

AirNav RadarBox - Metar Weather
  London Heathrow Metar Weather
 

METAR = EGLL 020120Z VRB02KT CAVOK 13/11 Q1022

STATION........ EGLL
OBSERVED....... Tue Sep 2, 02:20 BST
NOW............ Tue Sep 2, 02:49 BST
AGE............ 29 min ago
WIND........... varies at 2 mph
VISIBILITY..... greater than 7 miles
CLOUDS......... clear skies
TEMP........... 55°F (13°C)
DEWPT.......... 52°F (11°C)
HUMIDITY....... 88%
BAROMETER...... 1022 hPa (30.18 in Hg)

Tue Sep 02 2014, sunrise time : 05:20
Tue Sep 02 2014, sunset time : 18:42